Terminal Aerodrome Forecast
Issued by NWS

Home | Current Version | Previous Version | Text Only | Print | Product List | Glossary On
Versions: 1 2 3 4 5 6 7 8 9 10 11 12 13 14 15 16 17 18 19 20
000
FTUS42 KKEY 211150
TAFMTH
TAF
KMTH 211150Z 2112/2212 08011G18KT P6SM VCSH SCT020 SCT050
     FM211400 08014G22KT P6SM SCT025 SCT100 SCT250
     FM220000 10011G18KT P6SM VCSH SCT020 BKN040 OVC100=

USA.gov is the U.S. government's official web portal to all federal, state and local government web resources and services.